createdAt,value
2022-08-07T00:00:28.011Z,102297.78
2022-08-07T00:02:57.005Z,102296.06
2022-08-07T00:05:25.748Z,102290.88
2022-08-07T00:08:00.060Z,102291.00
2022-08-07T00:10:30.527Z,102289.41
2022-08-07T00:13:02.079Z,102287.75
2022-08-07T00:15:36.179Z,102288.69
2022-08-07T00:18:19.282Z,102279.81
2022-08-07T00:20:49.454Z,102280.66
2022-08-07T00:23:21.296Z,102276.06
2022-08-07T00:25:59.105Z,102276.81
2022-08-07T00:28:33.723Z,102280.25
2022-08-07T00:31:06.238Z,102285.50
2022-08-07T00:33:41.999Z,102285.53
2022-08-07T00:36:10.189Z,102276.75
2022-08-07T00:38:40.251Z,102284.84
2022-08-07T00:41:14.427Z,102275.19
2022-08-07T00:44:01.275Z,102257.53
2022-08-07T00:46:33.175Z,102275.44
2022-08-07T00:49:02.943Z,102279.13
2022-08-07T00:51:58.347Z,102279.00
2022-08-07T00:54:22.431Z,102281.63
2022-08-07T00:56:51.856Z,102279.88
2022-08-07T00:59:35.253Z,102286.19
2022-08-07T01:02:08.779Z,102282.66
2022-08-07T01:04:43.118Z,102281.81
2022-08-07T01:07:12.746Z,102270.28
2022-08-07T01:10:04.043Z,102287.09
2022-08-07T01:12:31.309Z,102280.84
2022-08-07T01:15:01.597Z,102281.81
2022-08-07T01:17:33.124Z,102284.53
2022-08-07T01:20:06.561Z,102273.81
2022-08-07T01:22:46.881Z,102271.13
2022-08-07T01:25:40.306Z,102265.78
2022-08-07T01:28:15.662Z,102272.03
2022-08-07T01:30:45.650Z,102267.53
2022-08-07T01:33:15.113Z,102279.13
2022-08-07T01:35:53.310Z,102269.28
2022-08-07T01:38:25.873Z,102270.31
2022-08-07T01:40:56.184Z,102268.53
2022-08-07T01:43:25.968Z,102272.13
2022-08-07T01:45:55.497Z,102266.75
2022-08-07T01:48:30.364Z,102267.69
2022-08-07T01:51:24.078Z,102264.19
2022-08-07T01:54:09.666Z,102268.66
2022-08-07T01:56:49.134Z,102275.81
2022-08-07T01:59:30.876Z,102281.19
2022-08-07T02:02:06.019Z,102272.41
2022-08-07T02:04:56.158Z,102274.28
2022-08-07T02:07:44.991Z,102269.81
2022-08-07T02:10:18.432Z,102275.16
2022-08-07T02:12:50.298Z,102270.69
2022-08-07T02:15:23.148Z,102269.75
2022-08-07T02:17:54.889Z,102267.03
2022-08-07T02:20:25.588Z,102263.47
2022-08-07T02:22:57.526Z,102269.75
2022-08-07T02:26:10.519Z,102269.78
2022-08-07T02:28:24.399Z,102261.75
2022-08-07T02:30:54.794Z,102259.03
2022-08-07T02:33:42.166Z,102254.53
2022-08-07T02:36:28.562Z,102249.19
2022-08-07T02:39:02.613Z,102250.13
2022-08-07T02:41:54.406Z,102246.59
2022-08-07T02:44:27.670Z,102249.34
2022-08-07T02:47:05.006Z,102241.31
2022-08-07T02:49:57.826Z,102242.19
2022-08-07T02:52:31.003Z,102241.22
2022-08-07T02:55:04.054Z,102247.44
2022-08-07T02:57:37.894Z,102245.66
2022-08-07T03:00:11.143Z,102243.94
2022-08-07T03:02:54.319Z,102235.22
2022-08-07T03:05:25.350Z,102243.22
2022-08-07T03:08:07.960Z,102240.56
2022-08-07T03:10:40.655Z,102235.28
2022-08-07T03:13:19.517Z,102237.06
2022-08-07T03:15:56.385Z,102237.06
2022-08-07T03:18:34.818Z,102241.47
2022-08-07T03:21:08.532Z,102237.91
2022-08-07T03:24:17.805Z,102238.88
2022-08-07T03:26:31.841Z,102237.97
2022-08-07T03:29:04.234Z,102236.22
2022-08-07T03:31:42.804Z,102234.50
2022-08-07T03:34:18.848Z,102226.50
2022-08-07T03:36:53.615Z,102230.06
2022-08-07T03:39:45.778Z,102238.97
2022-08-07T03:42:13.189Z,102232.75
2022-08-07T03:44:43.106Z,102237.25
2022-08-07T03:47:22.676Z,102235.50
2022-08-07T03:49:52.296Z,102239.06
2022-08-07T03:52:26.527Z,102245.28
2022-08-07T03:54:58.953Z,102246.16
2022-08-07T03:58:33.134Z,102248.84
2022-08-07T04:00:29.158Z,102244.38
2022-08-07T04:02:59.912Z,102245.28
2022-08-07T04:05:40.591Z,102244.34
2022-08-07T04:08:12.315Z,102247.00
2022-08-07T04:10:42.438Z,102256.75
2022-08-07T04:13:15.081Z,102253.16
2022-08-07T04:15:45.876Z,102259.44
2022-08-07T04:18:57.301Z,102262.13
2022-08-07T04:21:07.199Z,102256.78
2022-08-07T04:23:43.383Z,102257.66
2022-08-07T04:26:28.635Z,102263.00
2022-08-07T04:28:57.083Z,102262.13
2022-08-07T04:31:39.214Z,102265.66
2022-08-07T04:34:17.344Z,102263.88
2022-08-07T04:36:52.602Z,102270.97
2022-08-07T04:39:25.413Z,102269.97
2022-08-07T04:41:54.166Z,102276.16
2022-08-07T04:44:22.472Z,102272.56
2022-08-07T04:47:07.928Z,102279.66
2022-08-07T04:49:47.621Z,102281.41
2022-08-07T04:52:35.130Z,102276.91
2022-08-07T04:55:14.870Z,102267.97
2022-08-07T04:58:38.840Z,102274.09
2022-08-07T05:01:13.386Z,102275.72
2022-08-07T05:04:07.132Z,102284.53
2022-08-07T05:06:42.919Z,102279.16
2022-08-07T05:09:43.213Z,102277.22
2022-08-07T05:12:15.542Z,102275.34
2022-08-07T05:15:04.710Z,102269.91
2022-08-07T05:17:50.794Z,102281.38
2022-08-07T05:20:27.343Z,102273.25
2022-08-07T05:23:00.774Z,102275.81
2022-08-07T05:26:10.457Z,102276.59
2022-08-07T05:28:26.611Z,102285.41
2022-08-07T05:30:56.944Z,102282.53
2022-08-07T05:33:26.063Z,102280.53
2022-08-07T05:35:57.298Z,102287.53
2022-08-07T05:38:58.036Z,102281.16
2022-08-07T05:41:16.618Z,102283.63
2022-08-07T05:44:07.758Z,102282.59
2022-08-07T05:46:38.281Z,102282.38
2022-08-07T05:49:11.686Z,102282.22
2022-08-07T05:51:43.274Z,102280.31
2022-08-07T05:54:31.163Z,102290.88
2022-08-07T05:57:04.966Z,102279.13
2022-08-07T05:59:46.619Z,102275.41
2022-08-07T06:02:29.045Z,102278.88
2022-08-07T06:05:03.671Z,102268.09
2022-08-07T06:08:13.236Z,102271.44
2022-08-07T06:10:23.841Z,102267.66
2022-08-07T06:12:52.152Z,102271.97
2022-08-07T06:15:20.947Z,102273.38
2022-08-07T06:17:53.870Z,102269.66
2022-08-07T06:20:32.192Z,102264.13
2022-08-07T06:23:46.507Z,102279.97
2022-08-07T06:26:03.290Z,102278.91
2022-08-07T06:28:31.938Z,102274.31
2022-08-07T06:31:00.098Z,102279.44
2022-08-07T06:33:29.788Z,102276.59
2022-08-07T06:36:12.777Z,102276.41
2022-08-07T06:38:59.433Z,102271.84
2022-08-07T06:42:01.080Z,102283.22
2022-08-07T06:44:33.965Z,102282.09
2022-08-07T06:47:10.331Z,102281.06
2022-08-07T06:49:51.826Z,102274.56
2022-08-07T06:52:35.993Z,102273.50
2022-08-07T06:55:31.678Z,102271.47
2022-08-07T06:58:01.741Z,102275.81
2022-08-07T07:00:35.325Z,102272.09
2022-08-07T07:03:10.813Z,102275.53
2022-08-07T07:06:03.343Z,102271.81
2022-08-07T07:08:33.529Z,102237.91
2022-08-07T07:11:14.069Z,102274.97
2022-08-07T07:13:58.023Z,102266.78
2022-08-07T07:16:45.033Z,102267.50
2022-08-07T07:19:56.309Z,102273.19
2022-08-07T07:22:35.913Z,102274.13
2022-08-07T07:26:31.639Z,102279.38
2022-08-07T07:28:02.587Z,102281.72
2022-08-07T07:30:38.533Z,102278.13
2022-08-07T07:33:12.087Z,102272.88
2022-08-07T07:35:51.860Z,102272.50
2022-08-07T07:38:35.821Z,102275.97
2022-08-07T07:41:08.893Z,102278.72
2022-08-07T07:44:13.714Z,102264.69
2022-08-07T07:46:39.872Z,102272.41
2022-08-07T07:50:34.519Z,102268.75
2022-08-07T07:52:13.830Z,102267.78
2022-08-07T07:54:51.089Z,102267.41
2022-08-07T07:57:52.330Z,102271.38
2022-08-07T08:00:21.156Z,102263.06
2022-08-07T08:03:07.850Z,102259.50
2022-08-07T08:05:54.428Z,102259.22
2022-08-07T08:08:35.496Z,102256.59
2022-08-07T08:11:16.457Z,102253.84
2022-08-07T08:13:54.878Z,102254.72
2022-08-07T08:16:29.586Z,102247.69
2022-08-07T08:19:17.476Z,102250.97
2022-08-07T08:22:07.981Z,102250.84
2022-08-07T08:25:04.866Z,102250.34
2022-08-07T08:27:56.558Z,102244.84
2022-08-07T08:30:34.483Z,102248.56
2022-08-07T08:33:10.604Z,102238.19
2022-08-07T08:35:50.714Z,102246.38
2022-08-07T08:38:25.913Z,102240.41
2022-08-07T08:41:05.056Z,102236.75
2022-08-07T08:43:42.943Z,102240.09
2022-08-07T08:46:27.736Z,102239.13
2022-08-07T08:49:05.130Z,102223.06
2022-08-07T08:52:12.518Z,102227.63
2022-08-07T08:54:33.240Z,102236.56
2022-08-07T08:57:08.281Z,102233.19
2022-08-07T08:59:50.230Z,102229.16
2022-08-07T09:02:34.589Z,102222.19
2022-08-07T09:05:17.367Z,102215.38
2022-08-07T09:07:58.327Z,102221.47
2022-08-07T09:10:33.801Z,102222.44
2022-08-07T09:13:10.847Z,102202.00
2022-08-07T09:16:23.408Z,102223.63
2022-08-07T09:19:52.339Z,102218.09
2022-08-07T09:24:29.296Z,102220.88
2022-08-07T09:25:24.527Z,102219.03
2022-08-07T09:28:02.029Z,102216.13
2022-08-07T09:30:50.625Z,102221.47
2022-08-07T09:33:52.801Z,102221.53
2022-08-07T09:36:35.393Z,102210.00
2022-08-07T09:39:27.459Z,102219.66
2022-08-07T09:42:17.029Z,102218.41
2022-08-07T09:47:25.811Z,102209.59
2022-08-07T09:48:11.858Z,102204.84
2022-08-07T09:50:55.281Z,102201.31
2022-08-07T09:53:27.256Z,102204.03
2022-08-07T09:56:41.963Z,102197.00
2022-08-07T09:59:37.061Z,102202.16
2022-08-07T10:02:31.528Z,102200.66
2022-08-07T10:05:59.974Z,102195.09
2022-08-07T10:08:49.528Z,102194.72
2022-08-07T10:12:01.168Z,102183.69
2022-08-07T10:14:47.452Z,102181.44
2022-08-07T10:18:01.804Z,102177.94
2022-08-07T10:20:44.450Z,102176.22
2022-08-07T10:24:05.620Z,102175.34
2022-08-07T10:26:53.521Z,102174.13
2022-08-07T10:30:00.609Z,102172.50
2022-08-07T10:32:53.713Z,102166.47
2022-08-07T10:35:55.699Z,102172.78
2022-08-07T10:38:36.181Z,102161.13
2022-08-07T10:41:51.366Z,102157.66
2022-08-07T10:44:19.539Z,102163.13
2022-08-07T10:47:11.881Z,102162.94
2022-08-07T10:49:51.237Z,102152.22
2022-08-07T10:52:33.558Z,102146.50
2022-08-07T10:55:26.581Z,102150.88
2022-08-07T10:58:14.651Z,102147.94
2022-08-07T11:00:56.238Z,102143.59
2022-08-07T11:03:51.227Z,102128.81
2022-08-07T11:06:29.962Z,102146.97
2022-08-07T11:09:04.130Z,102141.63
2022-08-07T11:11:51.878Z,102138.69
2022-08-07T11:14:44.468Z,102136.06
2022-08-07T11:17:23.134Z,102143.47
2022-08-07T11:19:58.796Z,102132.72
2022-08-07T11:22:37.172Z,102131.31
2022-08-07T11:25:19.946Z,102132.03
2022-08-07T11:28:01.197Z,102127.06
2022-08-07T11:30:42.290Z,102123.56
2022-08-07T11:33:59.828Z,102125.22
2022-08-07T11:36:30.754Z,102121.00
2022-08-07T11:39:09.348Z,102121.56
2022-08-07T11:42:01.490Z,102125.19
2022-08-07T11:44:52.449Z,102115.84
2022-08-07T11:47:55.846Z,102100.66
2022-08-07T11:50:36.829Z,102100.19
2022-08-07T11:53:22.043Z,102110.47
2022-08-07T11:56:25.688Z,102105.72
2022-08-07T12:00:09.967Z,102099.84
2022-08-07T12:02:03.759Z,102107.72
2022-08-07T12:05:03.730Z,102103.44
2022-08-07T12:07:45.353Z,102093.56
2022-08-07T12:10:28.865Z,102090.53
2022-08-07T12:13:04.064Z,102091.69
2022-08-07T12:16:05.942Z,102085.59
2022-08-07T12:18:38.102Z,102090.06
2022-08-07T12:22:36.679Z,102069.94
2022-08-07T12:24:37.920Z,102077.72
2022-08-07T12:27:16.030Z,102078.34
2022-08-07T12:29:52.788Z,102072.19
2022-08-07T12:32:28.828Z,102067.50
2022-08-07T12:35:01.121Z,102063.66
2022-08-07T12:38:09.378Z,102061.19
2022-08-07T12:40:47.492Z,102059.19
2022-08-07T12:44:01.995Z,102055.88
2022-08-07T12:46:32.710Z,102061.13
2022-08-07T12:49:25.532Z,102063.63
2022-08-07T12:52:12.035Z,102058.47
2022-08-07T12:54:54.942Z,102060.47
2022-08-07T12:57:39.314Z,102060.78
2022-08-07T13:00:31.025Z,102060.94
2022-08-07T13:03:26.829Z,102052.63
2022-08-07T13:06:21.437Z,102046.66
2022-08-07T13:10:10.018Z,102049.34
2022-08-07T13:12:03.473Z,102037.22
2022-08-07T13:14:52.612Z,102042.72
2022-08-07T13:17:39.985Z,102042.41
2022-08-07T13:20:16.713Z,102042.50
2022-08-07T13:22:52.474Z,102048.44
2022-08-07T13:25:30.044Z,102043.44
2022-08-07T13:28:12.829Z,102044.41
2022-08-07T13:31:01.747Z,102041.63
2022-08-07T13:34:30.827Z,102030.19
2022-08-07T13:36:39.687Z,102035.50
2022-08-07T13:39:28.420Z,102037.34
2022-08-07T13:42:03.928Z,102034.00
2022-08-07T13:44:37.052Z,102025.69
2022-08-07T13:47:09.793Z,102027.31
2022-08-07T13:50:32.909Z,102032.25
2022-08-07T13:52:40.976Z,102017.25
2022-08-07T13:55:19.564Z,102029.00
2022-08-07T13:58:28.154Z,102025.91
2022-08-07T14:01:08.836Z,102017.25
2022-08-07T14:04:05.482Z,102008.13
2022-08-07T14:06:33.148Z,102010.97
2022-08-07T14:09:04.497Z,102003.91
2022-08-07T14:11:53.227Z,102013.88
2022-08-07T14:14:39.800Z,102004.38
2022-08-07T14:17:32.104Z,102006.59
2022-08-07T14:20:42.248Z,102001.78
2022-08-07T14:23:01.906Z,101991.88
2022-08-07T14:25:39.513Z,101997.81
2022-08-07T14:28:18.267Z,101998.22
2022-08-07T14:30:51.896Z,101997.50
2022-08-07T14:33:22.316Z,101995.41
2022-08-07T14:35:56.701Z,101993.38
2022-08-07T14:38:31.414Z,101996.50
2022-08-07T14:41:04.836Z,101992.66
2022-08-07T14:43:55.499Z,101990.81
2022-08-07T14:46:31.516Z,102005.88
2022-08-07T14:49:55.844Z,101994.78
2022-08-07T14:52:03.661Z,101988.81
2022-08-07T14:54:43.100Z,101981.94
2022-08-07T15:02:57.160Z,101979.72
2022-08-07T15:05:26.752Z,101976.69
2022-08-07T15:07:58.486Z,101973.63
2022-08-07T15:10:30.078Z,101977.69
2022-08-07T15:13:05.958Z,101978.44
2022-08-07T15:15:38.720Z,101978.34
2022-08-07T15:18:14.485Z,101975.28
2022-08-07T15:26:46.885Z,101969.28
2022-08-07T15:32:11.577Z,101961.94
2022-08-07T15:34:50.813Z,101959.78
2022-08-07T15:38:17.300Z,101966.75
2022-08-07T15:40:34.633Z,101950.53
2022-08-07T15:46:32.155Z,101950.78
2022-08-07T15:49:12.618Z,101951.22
2022-08-07T15:54:34.105Z,101930.59
2022-08-07T15:57:05.704Z,101939.59
2022-08-07T15:59:38.887Z,101928.09
2022-08-07T16:02:09.367Z,101936.72
2022-08-07T16:04:44.482Z,101928.13
2022-08-07T16:08:32.500Z,101926.88
2022-08-07T16:10:14.814Z,101926.13
2022-08-07T16:13:04.670Z,101927.56
2022-08-07T16:15:57.538Z,101924.47
2022-08-07T16:18:50.948Z,101933.88
2022-08-07T16:22:03.498Z,101923.59
2022-08-07T16:24:33.463Z,101932.13
2022-08-07T16:27:18.372Z,101933.66
2022-08-07T16:30:29.802Z,101924.69
2022-08-07T16:33:00.609Z,101929.94
2022-08-07T16:36:02.914Z,101924.97
2022-08-07T16:41:41.544Z,101924.66
2022-08-07T16:45:14.182Z,101918.75
2022-08-07T16:47:56.812Z,101918.66
2022-08-07T16:51:20.990Z,101924.00
2022-08-07T16:54:06.880Z,101929.16
2022-08-07T16:56:53.443Z,101922.84
2022-08-07T16:59:47.018Z,101921.81
2022-08-07T17:02:55.719Z,101918.94
2022-08-07T17:06:20.008Z,101922.41
2022-08-07T17:09:08.815Z,101925.09
2022-08-07T17:12:04.728Z,101921.09
2022-08-07T17:14:33.386Z,101923.03
2022-08-07T17:17:05.771Z,101923.41
2022-08-07T17:20:01.806Z,101926.13
2022-08-07T17:22:38.128Z,101918.91
2022-08-07T17:25:16.675Z,101926.38
2022-08-07T17:28:00.451Z,101918.84
2022-08-07T17:30:36.371Z,101933.19
2022-08-07T17:34:09.180Z,101932.06
2022-08-07T17:36:21.398Z,101933.28
2022-08-07T17:39:02.623Z,101932.47
2022-08-07T17:42:04.761Z,101931.41
2022-08-07T17:44:49.916Z,101930.50
2022-08-07T17:47:38.165Z,101928.84
2022-08-07T17:50:18.997Z,101918.41
2022-08-07T17:52:55.263Z,101929.03
2022-08-07T17:55:56.561Z,101928.13
2022-08-07T17:58:29.975Z,101932.38
2022-08-07T18:01:20.839Z,101928.19
2022-08-07T18:04:06.910Z,101925.56
2022-08-07T18:06:43.033Z,101927.28
2022-08-07T18:09:19.441Z,101934.06
2022-08-07T18:12:28.237Z,101927.53
2022-08-07T18:15:08.610Z,101935.75
2022-08-07T18:18:47.599Z,101932.81
2022-08-07T18:21:09.540Z,101934.44
2022-08-07T18:23:43.733Z,101933.66
2022-08-07T18:26:28.848Z,101931.25
2022-08-07T18:30:07.510Z,101939.50
2022-08-07T18:32:09.522Z,101933.75
2022-08-07T18:35:00.636Z,101947.84
2022-08-07T18:38:56.628Z,101943.66
2022-08-07T18:40:57.849Z,101945.94
2022-08-07T18:43:48.907Z,101940.19
2022-08-07T18:46:27.792Z,101949.44
2022-08-07T18:50:05.451Z,101949.28
2022-08-07T18:52:35.401Z,101944.44
2022-08-07T18:55:42.392Z,101948.53
2022-08-07T18:58:29.901Z,101960.78
2022-08-07T19:02:17.151Z,101960.78
2022-08-07T19:04:09.882Z,101962.25
2022-08-07T19:06:53.164Z,101967.75
2022-08-07T19:09:57.678Z,101972.00
2022-08-07T19:12:26.344Z,101976.84
2022-08-07T19:16:03.406Z,101980.31
2022-08-07T19:18:18.959Z,101986.28
2022-08-07T19:21:13.938Z,101982.66
2022-08-07T19:24:02.328Z,101975.28
2022-08-07T19:27:09.329Z,101986.09
2022-08-07T19:31:06.293Z,101990.63
2022-08-07T19:32:26.478Z,101985.31
2022-08-07T19:35:03.824Z,101993.59
2022-08-07T19:37:56.517Z,101996.72
2022-08-07T19:40:31.267Z,101990.91
2022-08-07T19:43:08.504Z,102003.53
2022-08-07T19:46:05.879Z,102000.50
2022-08-07T19:48:42.999Z,102001.16
2022-08-07T19:51:19.245Z,101996.28
2022-08-07T19:54:34.049Z,102001.28
2022-08-07T19:56:59.724Z,101996.03
2022-08-07T19:59:41.103Z,102001.53
2022-08-07T20:02:19.846Z,102000.03
2022-08-07T20:04:52.079Z,102013.94
2022-08-07T20:07:46.217Z,102005.25
2022-08-07T20:10:38.074Z,102010.91
2022-08-07T20:13:23.212Z,102001.75
2022-08-07T20:15:57.769Z,102016.84
2022-08-07T20:18:32.189Z,102021.56
2022-08-07T20:21:03.178Z,102013.59
2022-08-07T20:23:42.169Z,102023.41
2022-08-07T20:26:12.960Z,101991.63
2022-08-07T20:28:53.817Z,102012.63
2022-08-07T20:31:24.901Z,102011.13
2022-08-07T20:33:57.558Z,102017.69
2022-08-07T20:36:28.380Z,102023.91
2022-08-07T20:39:17.742Z,102024.09
2022-08-07T20:41:51.629Z,102016.78
2022-08-07T20:44:28.456Z,102027.97
2022-08-07T20:47:05.748Z,102020.25
2022-08-07T20:50:00.427Z,102024.91
2022-08-07T20:52:51.931Z,102000.38
2022-08-07T20:55:25.556Z,102022.63
2022-08-07T20:58:02.878Z,102019.41
2022-08-07T21:00:39.244Z,102023.25
2022-08-07T21:03:13.046Z,102019.28
2022-08-07T21:05:55.746Z,102017.03
2022-08-07T21:08:36.941Z,102003.38
2022-08-07T21:11:11.958Z,102024.97
2022-08-07T21:14:16.804Z,102025.88
2022-08-07T21:16:46.812Z,102020.94
2022-08-07T21:19:32.455Z,102024.41
2022-08-07T21:22:19.340Z,102020.69
2022-08-07T21:25:12.740Z,102022.69
2022-08-07T21:28:02.238Z,102024.63
2022-08-07T21:30:41.816Z,102018.97
2022-08-07T21:33:17.680Z,102025.38
2022-08-07T21:36:04.384Z,102024.53
2022-08-07T21:38:50.105Z,102030.03
2022-08-07T21:41:25.655Z,102025.59
2022-08-07T21:44:03.727Z,102026.63
2022-08-07T21:46:41.909Z,102000.41
2022-08-07T21:49:16.417Z,102028.50
2022-08-07T21:51:58.599Z,102031.13
2022-08-07T21:54:46.185Z,102040.53
2022-08-07T21:57:44.609Z,102042.78
2022-08-07T22:00:24.793Z,102041.31
2022-08-07T22:03:05.604Z,102033.53
2022-08-07T22:05:45.914Z,102033.84
2022-08-07T22:08:21.052Z,102035.38
2022-08-07T22:10:56.035Z,102033.59
2022-08-07T22:13:50.288Z,102038.28
2022-08-07T22:16:44.783Z,102039.47
2022-08-07T22:19:18.178Z,102030.72
2022-08-07T22:22:04.482Z,102038.59
2022-08-07T22:24:46.976Z,102034.78
2022-08-07T22:27:23.538Z,102044.47
2022-08-07T22:30:15.656Z,102027.28
2022-08-07T22:32:56.516Z,102036.91
2022-08-07T22:35:39.383Z,102039.47
2022-08-07T22:38:20.559Z,102043.22
2022-08-07T22:40:57.841Z,102042.56
2022-08-07T22:43:40.325Z,102046.63
2022-08-07T22:47:03.881Z,102041.63
2022-08-07T22:49:54.530Z,102044.50
2022-08-07T22:53:15.223Z,102045.44
2022-08-07T22:55:52.581Z,102046.94
2022-08-07T22:58:38.180Z,102046.41
2022-08-07T23:01:23.498Z,102051.78
2022-08-07T23:04:05.015Z,102041.00
2022-08-07T23:06:50.605Z,102055.91
2022-08-07T23:10:04.207Z,102050.28
2022-08-07T23:12:35.658Z,102054.69
2022-08-07T23:16:04.344Z,102051.88
2022-08-07T23:18:14.630Z,102056.50
2022-08-07T23:21:01.951Z,102063.56
2022-08-07T23:24:07.025Z,102065.72
2022-08-07T23:26:57.158Z,102066.09
2022-08-07T23:30:38.837Z,102066.31
2022-08-07T23:34:35.691Z,102058.47
2022-08-07T23:36:10.665Z,102072.41
2022-08-07T23:38:57.471Z,102073.38
2022-08-07T23:41:47.492Z,102070.50
2022-08-07T23:44:55.857Z,102068.66
2022-08-07T23:47:46.659Z,102035.06
2022-08-07T23:50:30.385Z,102069.56
2022-08-07T23:53:17.343Z,102067.59
2022-08-07T23:55:55.640Z,102072.06
2022-08-07T23:58:37.290Z,102066.59
